sensor_id;sensor_type;location;lat;lon;timestamp;pressure;altitude;pressure_sealevel;temperature;humidity
71457;BME280;59263;48.160;11.752;2022-12-07T00:01:49;95866.09;;;1.43;100.00
71457;BME280;59263;48.160;11.752;2022-12-07T00:04:16;95869.28;;;1.47;100.00
71457;BME280;59263;48.160;11.752;2022-12-07T00:06:44;95879.53;;;1.61;100.00
71457;BME280;59263;48.160;11.752;2022-12-07T00:09:14;95866.72;;;1.47;100.00
71457;BME280;59263;48.160;11.752;2022-12-07T00:11:40;95888.25;;;1.57;100.00
71457;BME280;59263;48.160;11.752;2022-12-07T00:14:07;95863.63;;;1.42;100.00
71457;BME280;59263;48.160;11.752;2022-12-07T00:16:35;95869.72;;;1.39;100.00
71457;BME280;59263;48.160;11.752;2022-12-07T00:19:01;95880.56;;;1.43;100.00
71457;BME280;59263;48.160;11.752;2022-12-07T00:21:28;95879.91;;;1.39;100.00
71457;BME280;59263;48.160;11.752;2022-12-07T00:23:55;95867.44;;;1.35;100.00
71457;BME280;59263;48.160;11.752;2022-12-07T00:26:32;95874.75;;;1.41;100.00
71457;BME280;59263;48.160;11.752;2022-12-07T00:29:03;95866.59;;;1.34;100.00
71457;BME280;59263;48.160;11.752;2022-12-07T00:31:32;95872.91;;;1.43;100.00
71457;BME280;59263;48.160;11.752;2022-12-07T00:33:58;95868.16;;;1.37;100.00
71457;BME280;59263;48.160;11.752;2022-12-07T00:36:25;95872.53;;;1.35;100.00
71457;BME280;59263;48.160;11.752;2022-12-07T00:38:51;95853.66;;;1.23;100.00
71457;BME280;59263;48.160;11.752;2022-12-07T00:41:18;95869.22;;;1.33;100.00
71457;BME280;59263;48.160;11.752;2022-12-07T00:43:46;95868.34;;;1.34;100.00
71457;BME280;59263;48.160;11.752;2022-12-07T00:46:12;95876.00;;;1.34;100.00
71457;BME280;59263;48.160;11.752;2022-12-07T00:48:38;95876.16;;;1.31;100.00
71457;BME280;59263;48.160;11.752;2022-12-07T00:51:05;95873.22;;;1.23;100.00
71457;BME280;59263;48.160;11.752;2022-12-07T00:53:34;95877.78;;;1.32;100.00
71457;BME280;59263;48.160;11.752;2022-12-07T00:56:05;95866.44;;;1.21;100.00
71457;BME280;59263;48.160;11.752;2022-12-07T00:58:30;95840.75;;;1.10;100.00
71457;BME280;59263;48.160;11.752;2022-12-07T01:00:59;95870.31;;;1.29;100.00
71457;BME280;59263;48.160;11.752;2022-12-07T01:03:25;95865.38;;;1.26;100.00
71457;BME280;59263;48.160;11.752;2022-12-07T01:05:51;95863.69;;;1.26;100.00
71457;BME280;59263;48.160;11.752;2022-12-07T01:08:17;95869.38;;;1.30;100.00
71457;BME280;59263;48.160;11.752;2022-12-07T01:10:42;95869.22;;;1.33;100.00
71457;BME280;59263;48.160;11.752;2022-12-07T01:13:08;95873.59;;;1.31;100.00
71457;BME280;59263;48.160;11.752;2022-12-07T01:15:33;95861.63;;;1.17;100.00
71457;BME280;59263;48.160;11.752;2022-12-07T01:17:58;95860.06;;;1.14;100.00
71457;BME280;59263;48.160;11.752;2022-12-07T01:20:24;95865.09;;;1.16;100.00
71457;BME280;59263;48.160;11.752;2022-12-07T01:22:49;95856.19;;;1.07;100.00
71457;BME280;59263;48.160;11.752;2022-12-07T01:25:14;95871.56;;;1.21;100.00
71457;BME280;59263;48.160;11.752;2022-12-07T01:27:40;95868.44;;;1.16;100.00
71457;BME280;59263;48.160;11.752;2022-12-07T01:30:06;95875.00;;;1.20;100.00
71457;BME280;59263;48.160;11.752;2022-12-07T01:32:32;95847.91;;;1.04;100.00
71457;BME280;59263;48.160;11.752;2022-12-07T01:34:57;95877.66;;;1.19;100.00
71457;BME280;59263;48.160;11.752;2022-12-07T01:37:23;95847.75;;;1.07;100.00
71457;BME280;59263;48.160;11.752;2022-12-07T01:39:49;95874.09;;;1.21;100.00
71457;BME280;59263;48.160;11.752;2022-12-07T01:42:14;95859.34;;;1.12;100.00
71457;BME280;59263;48.160;11.752;2022-12-07T01:45:25;95872.38;;;1.22;100.00
71457;BME280;59263;48.160;11.752;2022-12-07T01:47:57;95861.22;;;1.09;100.00
71457;BME280;59263;48.160;11.752;2022-12-07T01:50:26;95859.16;;;1.15;100.00
71457;BME280;59263;48.160;11.752;2022-12-07T01:52:54;95843.66;;;1.04;100.00
71457;BME280;59263;48.160;11.752;2022-12-07T01:55:20;95848.00;;;1.02;100.00
71457;BME280;59263;48.160;11.752;2022-12-07T01:57:48;95862.28;;;1.20;100.00
71457;BME280;59263;48.160;11.752;2022-12-07T02:00:15;95834.34;;;1.03;100.00
71457;BME280;59263;48.160;11.752;2022-12-07T02:02:57;95858.25;;;1.16;100.00
71457;BME280;59263;48.160;11.752;2022-12-07T02:05:26;95863.19;;;1.19;100.00
71457;BME280;59263;48.160;11.752;2022-12-07T02:07:54;95868.13;;;1.23;100.00
71457;BME280;59263;48.160;11.752;2022-12-07T02:10:22;95846.34;;;1.17;100.00
71457;BME280;59263;48.160;11.752;2022-12-07T02:12:54;95857.06;;;1.22;100.00
71457;BME280;59263;48.160;11.752;2022-12-07T02:15:22;95854.78;;;1.17;100.00
71457;BME280;59263;48.160;11.752;2022-12-07T02:21:07;95841.81;;;1.06;100.00
71457;BME280;59263;48.160;11.752;2022-12-07T02:23:41;95858.81;;;1.21;100.00
71457;BME280;59263;48.160;11.752;2022-12-07T02:29:13;95847.91;;;1.19;100.00
71457;BME280;59263;48.160;11.752;2022-12-07T02:31:46;95825.97;;;1.01;100.00
71457;BME280;59263;48.160;11.752;2022-12-07T02:34:34;95838.13;;;1.12;100.00
71457;BME280;59263;48.160;11.752;2022-12-07T02:37:09;95855.78;;;1.15;100.00
71457;BME280;59263;48.160;11.752;2022-12-07T02:39:42;95838.28;;;1.09;100.00
71457;BME280;59263;48.160;11.752;2022-12-07T02:42:25;95838.13;;;1.12;100.00
71457;BME280;59263;48.160;11.752;2022-12-07T02:44:52;95850.69;;;1.15;100.00
71457;BME280;59263;48.160;11.752;2022-12-07T02:47:19;95842.41;;;1.11;100.00
71457;BME280;59263;48.160;11.752;2022-12-07T02:49:46;95843.13;;;1.13;100.00
71457;BME280;59263;48.160;11.752;2022-12-07T02:52:12;95837.38;;;1.10;100.00
71457;BME280;59263;48.160;11.752;2022-12-07T02:54:37;95834.78;;;1.11;100.00
71457;BME280;59263;48.160;11.752;2022-12-07T03:00:27;95845.69;;;1.13;100.00
71457;BME280;59263;48.160;11.752;2022-12-07T03:03:00;95843.13;;;1.13;100.00
71457;BME280;59263;48.160;11.752;2022-12-07T03:05:54;95842.16;;;1.16;100.00
71457;BME280;59263;48.160;11.752;2022-12-07T03:08:31;95832.44;;;1.07;100.00
71457;BME280;59263;48.160;11.752;2022-12-07T03:11:07;95847.91;;;1.19;100.00
71457;BME280;59263;48.160;11.752;2022-12-07T03:16:07;95831.63;;;1.06;100.00
71457;BME280;59263;48.160;11.752;2022-12-07T03:18:38;95843.94;;;1.14;100.00
71457;BME280;59263;48.160;11.752;2022-12-07T03:21:09;95834.94;;;1.08;100.00
71457;BME280;59263;48.160;11.752;2022-12-07T03:23:38;95834.19;;;1.06;100.00
71457;BME280;59263;48.160;11.752;2022-12-07T03:26:06;95829.91;;;1.07;100.00
71457;BME280;59263;48.160;11.752;2022-12-07T03:28:37;95816.94;;;0.95;100.00
71457;BME280;59263;48.160;11.752;2022-12-07T03:33:59;95830.91;;;1.04;100.00
71457;BME280;59263;48.160;11.752;2022-12-07T03:36:37;95829.34;;;1.02;100.00
71457;BME280;59263;48.160;11.752;2022-12-07T03:41:47;95828.53;;;1.01;100.00
71457;BME280;59263;48.160;11.752;2022-12-07T03:44:14;95812.09;;;0.91;100.00
71457;BME280;59263;48.160;11.752;2022-12-07T03:49:20;95828.53;;;1.01;100.00
71457;BME280;59263;48.160;11.752;2022-12-07T03:52:12;95820.25;;;0.98;100.00
71457;BME280;59263;48.160;11.752;2022-12-07T03:55:06;95811.94;;;0.94;100.00
71457;BME280;59263;48.160;11.752;2022-12-07T03:57:34;95817.03;;;0.94;100.00
71457;BME280;59263;48.160;11.752;2022-12-07T04:00:01;95821.97;;;0.97;100.00
71457;BME280;59263;48.160;11.752;2022-12-07T04:02:28;95777.63;;;0.69;100.00
71457;BME280;59263;48.160;11.752;2022-12-07T04:04:55;95817.53;;;1.01;100.00
71457;BME280;59263;48.160;11.752;2022-12-07T04:07:20;95803.56;;;0.92;100.00
71457;BME280;59263;48.160;11.752;2022-12-07T04:09:46;95783.84;;;0.80;100.00
71457;BME280;59263;48.160;11.752;2022-12-07T04:12:11;95774.19;;;0.70;100.00
71457;BME280;59263;48.160;11.752;2022-12-07T04:14:37;95804.38;;;0.92;100.00
71457;BME280;59263;48.160;11.752;2022-12-07T04:17:02;95797.91;;;0.87;100.00
71457;BME280;59263;48.160;11.752;2022-12-07T04:19:30;95811.69;;;0.99;100.00
71457;BME280;59263;48.160;11.752;2022-12-07T04:21:57;95803.56;;;0.92;100.00
71457;BME280;59263;48.160;11.752;2022-12-07T04:24:23;95809.47;;;0.92;100.00
71457;BME280;59263;48.160;11.752;2022-12-07T04:26:52;95801.09;;;0.90;100.00
71457;BME280;59263;48.160;11.752;2022-12-07T04:29:18;95797.97;;;0.85;100.00
71457;BME280;59263;48.160;11.752;2022-12-07T04:31:44;95790.75;;;0.78;100.00
71457;BME280;59263;48.160;11.752;2022-12-07T04:34:10;95814.38;;;0.95;100.00
71457;BME280;59263;48.160;11.752;2022-12-07T04:36:36;95802.84;;;0.90;100.00
71457;BME280;59263;48.160;11.752;2022-12-07T04:39:03;95815.03;;;0.99;100.00
71457;BME280;59263;48.160;11.752;2022-12-07T04:41:28;95810.69;;;1.01;100.00
71457;BME280;59263;48.160;11.752;2022-12-07T04:43:59;95824.75;;;1.08;100.00
71457;BME280;59263;48.160;11.752;2022-12-07T04:46:26;95821.28;;;1.09;100.00
71457;BME280;59263;48.160;11.752;2022-12-07T04:48:53;95808.06;;;1.03;100.00
71457;BME280;59263;48.160;11.752;2022-12-07T04:51:21;95805.59;;;1.01;100.00
71457;BME280;59263;48.160;11.752;2022-12-07T04:53:47;95816.00;;;1.12;100.00
71457;BME280;59263;48.160;11.752;2022-12-07T04:56:14;95786.47;;;0.94;100.00
71457;BME280;59263;48.160;11.752;2022-12-07T04:58:40;95801.81;;;0.92;100.00
71457;BME280;59263;48.160;11.752;2022-12-07T05:01:06;95783.03;;;0.79;100.00
71457;BME280;59263;48.160;11.752;2022-12-07T05:03:31;95820.28;;;1.12;100.00
71457;BME280;59263;48.160;11.752;2022-12-07T05:05:56;95815.69;;;1.03;100.00
71457;BME280;59263;48.160;11.752;2022-12-07T05:08:22;95816.59;;;1.02;100.00
71457;BME280;59263;48.160;11.752;2022-12-07T05:10:49;95829.03;;;1.08;100.00
71457;BME280;59263;48.160;11.752;2022-12-07T05:13:15;95797.63;;;0.91;100.00
71457;BME280;59263;48.160;11.752;2022-12-07T05:15:40;95829.84;;;1.08;100.00
71457;BME280;59263;48.160;11.752;2022-12-07T05:18:05;95824.91;;;1.05;100.00
71457;BME280;59263;48.160;11.752;2022-12-07T05:20:31;95830.16;;;1.02;100.00
71457;BME280;59263;48.160;11.752;2022-12-07T05:22:56;95769.25;;;0.67;100.00
71457;BME280;59263;48.160;11.752;2022-12-07T05:25:23;95821.97;;;0.97;100.00
71457;BME280;59263;48.160;11.752;2022-12-07T05:27:49;95814.75;;;0.89;100.00
71457;BME280;59263;48.160;11.752;2022-12-07T05:30:14;95811.28;;;0.90;100.00
71457;BME280;59263;48.160;11.752;2022-12-07T05:32:40;95815.41;;;0.93;100.00
71457;BME280;59263;48.160;11.752;2022-12-07T05:35:05;95813.41;;;0.98;100.00
71457;BME280;59263;48.160;11.752;2022-12-07T05:37:31;95803.56;;;0.92;100.00
71457;BME280;59263;48.160;11.752;2022-12-07T05:39:56;95802.06;;;0.88;100.00
71457;BME280;59263;48.160;11.752;2022-12-07T05:42:22;95811.13;;;0.93;100.00
71457;BME280;59263;48.160;11.752;2022-12-07T05:44:47;95807.00;;;0.91;100.00
71457;BME280;59263;48.160;11.752;2022-12-07T05:47:13;95815.41;;;0.93;100.00
71457;BME280;59263;48.160;11.752;2022-12-07T05:49:39;95813.91;;;0.89;100.00
71457;BME280;59263;48.160;11.752;2022-12-07T05:52:05;95796.34;;;0.84;100.00
71457;BME280;59263;48.160;11.752;2022-12-07T05:54:30;95780.00;;;0.72;100.00
71457;BME280;59263;48.160;11.752;2022-12-07T05:56:57;95792.41;;;0.79;100.00
71457;BME280;59263;48.160;11.752;2022-12-07T05:59:22;95810.47;;;0.90;100.00
71457;BME280;59263;48.160;11.752;2022-12-07T06:01:52;95774.00;;;0.73;100.00
71457;BME280;59263;48.160;11.752;2022-12-07T06:04:19;95800.13;;;0.93;100.00
71457;BME280;59263;48.160;11.752;2022-12-07T06:06:44;95798.44;;;0.92;100.00
71457;BME280;59263;48.160;11.752;2022-12-07T06:09:10;95807.50;;;0.98;100.00
71457;BME280;59263;48.160;11.752;2022-12-07T06:11:35;95810.13;;;0.96;100.00
71457;BME280;59263;48.160;11.752;2022-12-07T06:14:19;95812.84;;;0.93;100.00
71457;BME280;59263;48.160;11.752;2022-12-07T06:16:45;95821.97;;;0.97;100.00
71457;BME280;59263;48.160;11.752;2022-12-07T06:19:10;95825.41;;;0.96;100.00
71457;BME280;59263;48.160;11.752;2022-12-07T06:21:36;95827.06;;;0.97;100.00
71457;BME280;59263;48.160;11.752;2022-12-07T06:24:01;95818.13;;;0.90;100.00
71457;BME280;59263;48.160;11.752;2022-12-07T06:26:27;95815.72;;;0.87;100.00
71457;BME280;59263;48.160;11.752;2022-12-07T06:28:52;95822.13;;;0.94;100.00
71457;BME280;59263;48.160;11.752;2022-12-07T06:31:17;95820.81;;;0.87;100.00
71457;BME280;59263;48.160;11.752;2022-12-07T06:33:43;95807.53;;;0.82;100.00
71457;BME280;59263;48.160;11.752;2022-12-07T06:36:08;95815.06;;;0.83;100.00
71457;BME280;59263;48.160;11.752;2022-12-07T06:38:34;95803.75;;;0.73;100.00
71457;BME280;59263;48.160;11.752;2022-12-07T06:41:00;95804.56;;;0.73;100.00
71457;BME280;59263;48.160;11.752;2022-12-07T06:43:25;95829.38;;;0.86;100.00
71457;BME280;59263;48.160;11.752;2022-12-07T06:45:51;95833.63;;;0.85;100.00
71457;BME280;59263;48.160;11.752;2022-12-07T06:48:16;95826.06;;;0.84;100.00
71457;BME280;59263;48.160;11.752;2022-12-07T06:50:44;95834.47;;;0.86;100.00
71457;BME280;59263;48.160;11.752;2022-12-07T06:53:10;95843.00;;;0.85;100.00
71457;BME280;59263;48.160;11.752;2022-12-07T06:55:35;95834.78;;;0.80;100.00
71457;BME280;59263;48.160;11.752;2022-12-07T06:58:01;95811.78;;;0.65;100.00
71457;BME280;59263;48.160;11.752;2022-12-07T07:00:27;95817.88;;;0.63;100.00
71457;BME280;59263;48.160;11.752;2022-12-07T07:02:53;95834.94;;;0.77;100.00
71457;BME280;59263;48.160;11.752;2022-12-07T07:05:18;95805.41;;;0.58;100.00
71457;BME280;59263;48.160;11.752;2022-12-07T07:07:43;95847.28;;;0.84;100.00
71457;BME280;59263;48.160;11.752;2022-12-07T07:10:09;95842.19;;;0.84;100.00
71457;BME280;59263;48.160;11.752;2022-12-07T07:12:34;95841.47;;;0.82;100.00
71457;BME280;59263;48.160;11.752;2022-12-07T07:15:00;95834.78;;;0.80;100.00
71457;BME280;59263;48.160;11.752;2022-12-07T07:17:25;95856.16;;;0.93;100.00
71457;BME280;59263;48.160;11.752;2022-12-07T07:19:50;95839.72;;;0.83;100.00
71457;BME280;59263;48.160;11.752;2022-12-07T07:22:16;95839.56;;;0.86;100.00
71457;BME280;59263;48.160;11.752;2022-12-07T07:24:42;95834.63;;;0.83;100.00
71457;BME280;59263;48.160;11.752;2022-12-07T07:27:07;95834.78;;;0.80;100.00
71457;BME280;59263;48.160;11.752;2022-12-07T07:32:08;95828.22;;;0.76;100.00
71457;BME280;59263;48.160;11.752;2022-12-07T07:34:33;95809.56;;;0.59;100.00
71457;BME280;59263;48.160;11.752;2022-12-07T07:36:59;95833.00;;;0.82;100.00
71457;BME280;59263;48.160;11.752;2022-12-07T07:39:25;95825.41;;;0.80;100.00
71457;BME280;59263;48.160;11.752;2022-12-07T07:41:50;95836.34;;;0.82;100.00
71457;BME280;59263;48.160;11.752;2022-12-07T07:44:16;95840.28;;;0.88;100.00
71457;BME280;59263;48.160;11.752;2022-12-07T07:46:41;95851.22;;;0.90;100.00
71457;BME280;59263;48.160;11.752;2022-12-07T07:49:06;95820.84;;;0.71;100.00
71457;BME280;59263;48.160;11.752;2022-12-07T07:51:32;95854.50;;;0.92;100.00
71457;BME280;59263;48.160;11.752;2022-12-07T07:53:58;95852.84;;;0.91;100.00
71457;BME280;59263;48.160;11.752;2022-12-07T07:56:23;95867.56;;;1.02;100.00
71457;BME280;59263;48.160;11.752;2022-12-07T07:58:52;95845.88;;;0.94;100.00
71457;BME280;59263;48.160;11.752;2022-12-07T08:01:17;95847.44;;;0.97;100.00
71457;BME280;59263;48.160;11.752;2022-12-07T08:03:45;95854.00;;;1.01;100.00
71457;BME280;59263;48.160;11.752;2022-12-07T08:06:11;95844.63;;;1.02;100.00
71457;BME280;59263;48.160;11.752;2022-12-07T08:08:41;95833.78;;;0.98;100.00
71457;BME280;59263;48.160;11.752;2022-12-07T08:11:08;95864.81;;;1.20;100.00
71457;BME280;59263;48.160;11.752;2022-12-07T08:13:35;95861.28;;;1.23;100.00
71457;BME280;59263;48.160;11.752;2022-12-07T08:16:09;95815.69;;;1.03;100.00
71457;BME280;59263;48.160;11.752;2022-12-07T08:18:36;95887.50;;;1.41;100.00
71457;BME280;59263;48.160;11.752;2022-12-07T08:21:03;95895.69;;;1.46;100.00
71457;BME280;59263;48.160;11.752;2022-12-07T08:23:29;95826.22;;;1.12;100.00
71457;BME280;59263;48.160;11.752;2022-12-07T08:26:05;95845.00;;;1.26;100.00
71457;BME280;59263;48.160;11.752;2022-12-07T08:33:47;95826.38;;;1.09;100.00
71457;BME280;59263;48.160;11.752;2022-12-07T08:36:30;95863.63;;;1.42;100.00
71457;BME280;59263;48.160;11.752;2022-12-07T08:38:55;95860.28;;;1.26;100.00
71457;BME280;59263;48.160;11.752;2022-12-07T08:41:21;95860.03;;;1.30;100.00
71457;BME280;59263;48.160;11.752;2022-12-07T08:43:51;95833.59;;;1.17;100.00
71457;BME280;59263;48.160;11.752;2022-12-07T08:49:36;95897.91;;;1.52;100.00
71457;BME280;59263;48.160;11.752;2022-12-07T08:52:05;95855.19;;;1.26;100.00
71457;BME280;59263;48.160;11.752;2022-12-07T08:54:34;95855.28;;;1.24;100.00
71457;BME280;59263;48.160;11.752;2022-12-07T08:57:01;95884.75;;;1.44;100.00
71457;BME280;59263;48.160;11.752;2022-12-07T08:59:37;95894.19;;;1.58;100.00
71457;BME280;59263;48.160;11.752;2022-12-07T09:02:04;95891.53;;;1.59;100.00
71457;BME280;59263;48.160;11.752;2022-12-07T09:04:30;95845.56;;;1.31;100.00
71457;BME280;59263;48.160;11.752;2022-12-07T09:07:10;95860.16;;;1.43;100.00
71457;BME280;59263;48.160;11.752;2022-12-07T09:09:41;95846.13;;;1.36;100.00
71457;BME280;59263;48.160;11.752;2022-12-07T09:12:07;95901.38;;;1.65;100.00
71457;BME280;59263;48.160;11.752;2022-12-07T09:14:32;95833.53;;;1.33;100.00
71457;BME280;59263;48.160;11.752;2022-12-07T09:17:09;95867.13;;;1.55;100.00
71457;BME280;59263;48.160;11.752;2022-12-07T09:19:35;95870.97;;;1.62;100.00
71457;BME280;59263;48.160;11.752;2022-12-07T09:22:00;95862.59;;;1.60;100.00
71457;BME280;59263;48.160;11.752;2022-12-07T09:24:26;95858.75;;;1.53;100.00
71457;BME280;59263;48.160;11.752;2022-12-07T09:26:51;95873.06;;;1.70;100.00
71457;BME280;59263;48.160;11.752;2022-12-07T09:29:17;95860.09;;;1.59;100.00
71457;BME280;59263;48.160;11.752;2022-12-07T09:31:42;95839.34;;;1.51;100.00
71457;BME280;59263;48.160;11.752;2022-12-07T09:34:07;95862.41;;;1.63;100.00
71457;BME280;59263;48.160;11.752;2022-12-07T09:36:33;95847.47;;;1.57;100.00
71457;BME280;59263;48.160;11.752;2022-12-07T09:38:58;95869.38;;;1.76;100.00
71457;BME280;59263;48.160;11.752;2022-12-07T09:41:25;95891.16;;;1.96;100.00
71457;BME280;59263;48.160;11.752;2022-12-07T09:43:53;95864.63;;;1.84;100.00
71457;BME280;59263;48.160;11.752;2022-12-07T09:46:23;95864.47;;;1.87;100.00
71457;BME280;59263;48.160;11.752;2022-12-07T09:48:50;95853.97;;;1.77;100.00
71457;BME280;59263;48.160;11.752;2022-12-07T09:51:22;95812.41;;;1.61;100.00
71457;BME280;59263;48.160;11.752;2022-12-07T09:53:56;95856.81;;;1.87;100.00
71457;BME280;59263;48.160;11.752;2022-12-07T09:56:23;95883.00;;;2.19;100.00
71457;BME280;59263;48.160;11.752;2022-12-07T09:58:58;95842.06;;;2.06;100.00
71457;BME280;59263;48.160;11.752;2022-12-07T10:01:29;95841.97;;;2.08;100.00
71457;BME280;59263;48.160;11.752;2022-12-07T10:04:09;95870.84;;;2.37;100.00
71457;BME280;59263;48.160;11.752;2022-12-07T10:06:56;95845.16;;;2.26;100.00
71457;BME280;59263;48.160;11.752;2022-12-07T10:09:24;95836.22;;;2.33;100.00
71457;BME280;59263;48.160;11.752;2022-12-07T10:12:07;95860.19;;;2.45;100.00
71457;BME280;59263;48.160;11.752;2022-12-07T10:14:56;95852.81;;;2.40;100.00
71457;BME280;59263;48.160;11.752;2022-12-07T10:17:37;95865.94;;;2.48;100.00
71457;BME280;59263;48.160;11.752;2022-12-07T10:22:36;95844.22;;;2.41;100.00
71457;BME280;59263;48.160;11.752;2022-12-07T10:25:09;95862.84;;;2.57;100.00
71457;BME280;59263;48.160;11.752;2022-12-07T10:27:43;95863.00;;;2.54;100.00
71457;BME280;59263;48.160;11.752;2022-12-07T10:30:14;95855.00;;;2.60;100.00
71457;BME280;59263;48.160;11.752;2022-12-07T10:32:40;95841.28;;;2.61;100.00
71457;BME280;59263;48.160;11.752;2022-12-07T10:35:19;95846.94;;;2.66;100.00
71457;BME280;59263;48.160;11.752;2022-12-07T10:37:45;95814.16;;;2.46;100.00
71457;BME280;59263;48.160;11.752;2022-12-07T10:43:18;95841.78;;;2.81;100.00
71457;BME280;59263;48.160;11.752;2022-12-07T10:50:55;95834.19;;;3.21;100.00
71457;BME280;59263;48.160;11.752;2022-12-07T10:59:04;95813.72;;;3.21;100.00
71457;BME280;59263;48.160;11.752;2022-12-07T11:01:49;95822.72;;;3.26;100.00
71457;BME280;59263;48.160;11.752;2022-12-07T11:04:24;95816.00;;;3.25;100.00
71457;BME280;59263;48.160;11.752;2022-12-07T11:06:59;95807.63;;;3.36;100.00
71457;BME280;59263;48.160;11.752;2022-12-07T11:15:37;95780.78;;;3.69;100.00
71457;BME280;59263;48.160;11.752;2022-12-07T11:18:27;95786.19;;;3.77;100.00
71457;BME280;59263;48.160;11.752;2022-12-07T11:21:12;95781.56;;;3.82;100.00
71457;BME280;59263;48.160;11.752;2022-12-07T11:23:48;95768.78;;;3.82;100.00
71457;BME280;59263;48.160;11.752;2022-12-07T11:29:16;95730.09;;;3.48;100.00
71457;BME280;59263;48.160;11.752;2022-12-07T11:36:52;95765.50;;;3.93;100.00
71457;BME280;59263;48.160;11.752;2022-12-07T11:41:47;95749.66;;;3.62;100.00
71457;BME280;59263;48.160;11.752;2022-12-07T11:47:17;95767.16;;;3.81;100.00
71457;BME280;59263;48.160;11.752;2022-12-07T11:52:32;95720.28;;;3.42;100.00
71457;BME280;59263;48.160;11.752;2022-12-07T11:55:19;95716.38;;;3.36;100.00
71457;BME280;59263;48.160;11.752;2022-12-07T11:57:51;95735.13;;;3.50;100.00
71457;BME280;59263;48.160;11.752;2022-12-07T12:00:18;95724.97;;;3.48;100.00
71457;BME280;59263;48.160;11.752;2022-12-07T12:03:11;95729.09;;;3.51;100.00
71457;BME280;59263;48.160;11.752;2022-12-07T12:05:39;95743.41;;;3.79;100.00
71457;BME280;59263;48.160;11.752;2022-12-07T12:11:08;95704.13;;;3.67;100.00
71457;BME280;59263;48.160;11.752;2022-12-07T12:13:48;95728.88;;;3.79;100.00
71457;BME280;59263;48.160;11.752;2022-12-07T12:16:48;95721.09;;;3.68;100.00
71457;BME280;59263;48.160;11.752;2022-12-07T12:19:41;95724.78;;;3.51;100.00
71457;BME280;59263;48.160;11.752;2022-12-07T12:22:18;95718.66;;;3.54;100.00
71457;BME280;59263;48.160;11.752;2022-12-07T12:24:47;95712.91;;;3.50;100.00
71457;BME280;59263;48.160;11.752;2022-12-07T12:27:24;95688.16;;;3.51;100.00
71457;BME280;59263;48.160;11.752;2022-12-07T12:29:56;95708.00;;;3.73;100.00
71457;BME280;59263;48.160;11.752;2022-12-07T12:32:41;95726.63;;;3.75;100.00
71457;BME280;59263;48.160;11.752;2022-12-07T12:37:52;95722.13;;;3.66;100.00
71457;BME280;59263;48.160;11.752;2022-12-07T12:45:30;95730.72;;;3.64;100.00
71457;BME280;59263;48.160;11.752;2022-12-07T12:50:25;95739.53;;;3.60;100.00
71457;BME280;59263;48.160;11.752;2022-12-07T12:53:36;95728.84;;;3.41;100.00
71457;BME280;59263;48.160;11.752;2022-12-07T13:00:43;95736.66;;;3.52;100.00
71457;BME280;59263;48.160;11.752;2022-12-07T13:03:24;95730.91;;;3.36;100.00
71457;BME280;59263;48.160;11.752;2022-12-07T13:06:18;95740.13;;;3.38;100.00
71457;BME280;59263;48.160;11.752;2022-12-07T13:08:45;95716.19;;;3.27;100.00
71457;BME280;59263;48.160;11.752;2022-12-07T13:11:39;95683.84;;;3.26;100.00
71457;BME280;59263;48.160;11.752;2022-12-07T13:14:43;95701.47;;;3.43;100.00
71457;BME280;59263;48.160;11.752;2022-12-07T13:20:01;95706.78;;;3.27;100.00
71457;BME280;59263;48.160;11.752;2022-12-07T13:25:05;95691.09;;;3.06;100.00
71457;BME280;59263;48.160;11.752;2022-12-07T13:27:33;95700.63;;;3.04;100.00
71457;BME280;59263;48.160;11.752;2022-12-07T13:30:00;95694.84;;;2.88;100.00
71457;BME280;59263;48.160;11.752;2022-12-07T13:32:27;95695.47;;;2.79;100.00
71457;BME280;59263;48.160;11.752;2022-12-07T13:34:53;95702.94;;;2.82;100.00
71457;BME280;59263;48.160;11.752;2022-12-07T13:37:29;95697.47;;;2.74;100.00
71457;BME280;59263;48.160;11.752;2022-12-07T13:39:57;95711.31;;;2.84;100.00
71457;BME280;59263;48.160;11.752;2022-12-07T13:42:28;95706.00;;;2.87;100.00
71457;BME280;59263;48.160;11.752;2022-12-07T13:44:55;95701.56;;;2.76;100.00
71457;BME280;59263;48.160;11.752;2022-12-07T13:47:46;95709.13;;;2.78;100.00
71457;BME280;59263;48.160;11.752;2022-12-07T13:50:31;95704.25;;;2.75;100.00
71457;BME280;59263;48.160;11.752;2022-12-07T13:53:01;95689.88;;;2.59;100.00
71457;BME280;59263;48.160;11.752;2022-12-07T13:55:27;95704.81;;;2.65;100.00
71457;BME280;59263;48.160;11.752;2022-12-07T13:57:54;95713.41;;;2.64;100.00
71457;BME280;59263;48.160;11.752;2022-12-07T14:00:21;95707.66;;;2.61;100.00
71457;BME280;59263;48.160;11.752;2022-12-07T14:02:58;95711.16;;;2.60;100.00
71457;BME280;59263;48.160;11.752;2022-12-07T14:05:25;95703.97;;;2.52;100.00
71457;BME280;59263;48.160;11.752;2022-12-07T14:07:57;95706.34;;;2.41;100.00
71457;BME280;59263;48.160;11.752;2022-12-07T14:10:37;95703.28;;;2.36;100.00
71457;BME280;59263;48.160;11.752;2022-12-07T14:15:50;95707.94;;;2.29;100.00
71457;BME280;59263;48.160;11.752;2022-12-07T14:18:39;95704.50;;;2.30;100.00
71457;BME280;59263;48.160;11.752;2022-12-07T14:23:33;95704.53;;;2.43;100.00
71457;BME280;59263;48.160;11.752;2022-12-07T14:26:06;95711.06;;;2.47;100.00
71457;BME280;59263;48.160;11.752;2022-12-07T14:28:36;95721.63;;;2.55;100.00
71457;BME280;59263;48.160;11.752;2022-12-07T14:31:03;95692.25;;;2.35;100.00
71457;BME280;59263;48.160;11.752;2022-12-07T14:33:28;95715.00;;;2.53;100.00
71457;BME280;59263;48.160;11.752;2022-12-07T14:35:55;95714.19;;;2.52;100.00
71457;BME280;59263;48.160;11.752;2022-12-07T14:38:22;95717.28;;;2.43;100.00
71457;BME280;59263;48.160;11.752;2022-12-07T14:40:49;95713.50;;;2.36;100.00
71457;BME280;59263;48.160;11.752;2022-12-07T14:43:16;95719.81;;;2.30;100.00